Airfield :
LOGIN :

Register | Disclaimer

   EN    FR    IT 

 










Legend :    VFR   Marginal VFR   IFR   Intensive IFR   Very Intensive IFR
Visi :
Ceiling :
>= 8 km
>= 3000ft
5 to 8 km
1000 to 3000 ft
1500m to 5 km
500 to 1000 ft
800 to 1500m
200 to 500 ft
< 800m
< 200 ft
Symbols :   Thunderstorms  Fog  Heavy snow  Heavy precipitations  Wind > 20 kt
SIGMETs :     Misc.  Thunderstorms  Icing  Turbulence  Mountain Waves  Volcanic Ashes







- Airport Elevation : 468 ft
- IATA code : GRO


LEGE - Girona Costa Brava

CURRENT METAR :
  • 240130Z 00000KT 1200 R20/0400N BCFG NSC 04/04 Q1028

EXPIRED METARs :
  • 240100Z VRB01KT 4000 0600N R20/0500D BCFG NSC 03/03 Q1028
  • 240030Z 00000KT 4000 1000N BCFG NSC 03/03 Q1028
  • 240000Z 00000KT 4000 1500N R20/0450D BCFG NSC 05/05 Q1028
  • 232330Z 00000KT 3000 BCFG NSC 05/05 Q1028
  • 232300Z 03001KT 4000 BCFG NSC 04/04 Q1028

TAF TAF LEGE
Valid from the 24 at 00:00 until the 25 at 00:00 UTC


232300Z 2400/2424 VRB03KT 9999 SCT015 TX19/2413Z TN04/2407Z
PROB40
TEMPO 2400/2409 0800 BCFG BKN003
BECMG 2410/2412 18012KT
TEMPO 2418/2424 18005KT
No reported NOTAMs for that airfield.



MET'MAP, your aeronautical weather chart ! - Copyright ORBIFLY December 2007 - Disclaimer

ORBIFLY MET'MAP TEAM :

Programming & Development : Alexandra Zaïnal
Concept & Development : Baudouin d'Aumeries
Co-Development & Prog : Marc-Olivier Méhu
Technical & hardware support : Manuel Goepfert

Contact : metmap@orbifly.com




SOURCES & CREDITS :

   NOAA